EHRD/RTM METAR and TAF weather

Enter ICAO airport designator
Station Type Date Time Source
EHRD METAR 2021/05/10 01:55 UTC NOAA

EHRD 100155Z AUTO 14007KT 110V170 9999 DZ FEW015CB 16/14 Q0997 NOSIG


Station Type Date Time Source
EHRD Decoded METAR 2021/05/10 01:55 UTC NOAA

Rotterdam Airport Zestienhoven, Netherlands (EHRD) 51-57N 004-27E -4M
May 09, 2021 - 09:55 PM EDT / 2021.05.10 0155 UTC
Wind: from the SE (140 degrees) at 8 MPH (7 KT) (direction variable):0
Visibility: greater than 7 mile(s):0
Sky conditions: mostly clear
Weather: drizzle; Cumulonimbus clouds observed
Temperature: 60 F (16 C)
Dew Point: 57 F (14 C)
Relative Humidity: 87%
Pressure (altimeter): 29.44 in. Hg (0997 hPa)
ob: EHRD 100155Z AUTO 14007KT 110V170 9999 DZ FEW015CB 16/14 Q0997 NOSIG
cycle: 2

Station Type Date Time Source
EHRD TAF 2021/05/09 20:48 UTC NOAA

TAF
AMD EHRD 092043Z 0920/1024 17008KT CAVOK
TEMPO 0920/1003 6000 SHRA SCT060CB
BECMG 0921/0924 14010KT
BECMG 1003/1006 24013KT SCT020 BKN030
TEMPO 1005/1010 24015G27KT 6000 -RA -SHRA SCT008 BKN015 SCT018CB PROB40
TEMPO 1010/1019 6000 -SHRA SCT020CB
BECMG 1017/1020 VRB03KT CAVOK

Example: see airport list